メインページ
METAR-TAF:

METAR-TAF

空港 :

ヤップ州, Yap Island, ミクロネシア

ヤップ国際空港

緯度: 09-29N, 経度: 138-05E, 海抜: 28m

現時点の気象観測

当レポートは11分前の12:56(UTC)に作成
変向風 4kt
気温 28°C
湿度 79%
気圧 1009 hPa
視程: 19.3km
高度1600ftの雲は散在している
高度13000ftの千切れ雲あり
高度30000ftの曇り

METAR: PTYA 241256Z VRB04KT 12SM SCT016 BKN130 OVC300 28/24 A2981 RMK SLP095 T02780237

時間: 23:07 (13:07 UTC)

予報

当レポートは1時間32分前の11:35(UTC)に作成
予報は24日の 12時(UTC)から 25日の 12時(UTC)まで有効
の風 9kt
視程: 10km
高度1500ftの雲は散在している
高度13000ftの雲は散在している
近辺でにわか雨

TAF: PTYA 241135Z 2412/2512 08009KT P6SM VCSH SCT015 SCT130

4,000以上の空港の気象観測と天気予報(METAR報とTAF報)

利用可能な観測所は地図上に黄色い丸と赤い丸で示す。

丸の上にカーソルを重ねると観測所名を参照できる。

次にクリックすると気象観測と天気予報を参照できる。

マップの切り替え:黒色「×」印の緑ボタンをクリックして拡大、「-」印の緑ボタンをクリックして縮小、緑色の三角印をクリックして隣りの地図に切り替え


METAR-TAF: